createdAt,value
2022-08-28T00:23:42.380Z,100193.59
2022-08-28T00:53:45.923Z,100193.83
2022-08-28T01:23:49.281Z,100181.33
2022-08-28T01:53:53.612Z,100198.17
2022-08-28T02:23:57.093Z,100196.71
2022-08-28T02:53:59.812Z,100202.77
2022-08-28T03:24:03.207Z,100207.16
2022-08-28T03:54:06.044Z,100214.34
2022-08-28T04:24:09.951Z,100221.31
2022-08-28T04:54:12.918Z,100221.31
2022-08-28T05:24:16.509Z,100233.95
2022-08-28T05:54:19.357Z,100249.63
2022-08-28T06:24:23.680Z,100256.27
2022-08-28T06:54:26.648Z,100281.00
2022-08-28T07:24:30.007Z,100273.58
2022-08-28T07:54:33.149Z,100278.05
2022-08-28T08:24:38.042Z,100302.66
2022-08-28T08:54:40.921Z,100314.24
2022-08-28T09:24:44.861Z,100333.39
2022-08-28T09:54:47.593Z,100332.94
2022-08-28T10:24:51.686Z,100345.94
2022-08-28T10:54:54.914Z,100356.83
2022-08-28T11:25:03.305Z,100379.15
2022-08-28T11:55:09.263Z,100404.95
2022-08-28T12:25:13.866Z,100401.66
2022-08-28T12:55:17.096Z,100409.67
2022-08-28T13:25:22.285Z,100400.34
2022-08-28T13:55:25.066Z,100404.86
2022-08-28T14:25:30.793Z,100428.69
2022-08-28T14:55:33.541Z,100435.94
2022-08-28T15:25:37.480Z,100440.02
2022-08-28T15:55:40.409Z,100457.22
2022-08-28T16:25:44.369Z,100471.20
2022-08-28T16:55:47.149Z,100484.92
2022-08-28T17:25:50.697Z,100485.59
2022-08-28T17:55:54.211Z,100508.83
2022-08-28T18:25:57.672Z,100561.72
2022-08-28T18:56:02.741Z,100586.25
2022-08-28T19:26:08.080Z,100613.47
2022-08-28T19:56:11.800Z,100640.91
2022-08-28T20:26:15.268Z,100657.92
2022-08-28T20:56:18.479Z,100678.70
2022-08-28T21:26:21.559Z,100702.77
2022-08-28T21:56:24.928Z,100703.91
2022-08-28T22:26:28.356Z,100726.28
2022-08-28T22:56:31.431Z,100727.61
2022-08-28T23:26:34.510Z,100745.03
2022-08-28T23:56:37.306Z,100732.78
